sensor_id;sensor_type;location;lat;lon;timestamp;P1;durP1;ratioP1;P2;durP2;ratioP2
76675;SDS011;69204;55.350;36.906;2023-05-16T00:03:19;29.67;;;9.50;;
76675;SDS011;69204;55.350;36.906;2023-05-16T00:08:20;37.80;;;12.88;;
76675;SDS011;69204;55.350;36.906;2023-05-16T00:13:20;31.67;;;11.83;;
76675;SDS011;69204;55.350;36.906;2023-05-16T00:18:24;36.22;;;12.13;;
76675;SDS011;69204;55.350;36.906;2023-05-16T00:23:26;38.57;;;12.07;;
76675;SDS011;69204;55.350;36.906;2023-05-16T00:28:27;30.85;;;11.50;;
76675;SDS011;69204;55.350;36.906;2023-05-16T00:33:28;29.67;;;11.23;;
76675;SDS011;69204;55.350;36.906;2023-05-16T00:38:28;19.45;;;8.18;;
76675;SDS011;69204;55.350;36.906;2023-05-16T00:43:29;13.10;;;6.30;;
76675;SDS011;69204;55.350;36.906;2023-05-16T00:48:30;13.98;;;7.70;;
76675;SDS011;69204;55.350;36.906;2023-05-16T00:53:31;17.53;;;7.10;;
76675;SDS011;69204;55.350;36.906;2023-05-16T00:58:32;16.13;;;7.47;;
76675;SDS011;69204;55.350;36.906;2023-05-16T01:03:33;17.23;;;7.90;;
76675;SDS011;69204;55.350;36.906;2023-05-16T01:08:34;17.05;;;8.13;;
76675;SDS011;69204;55.350;36.906;2023-05-16T01:13:40;15.27;;;6.90;;
76675;SDS011;69204;55.350;36.906;2023-05-16T01:24:26;17.63;;;7.80;;
76675;SDS011;69204;55.350;36.906;2023-05-16T01:29:34;12.88;;;6.05;;
76675;SDS011;69204;55.350;36.906;2023-05-16T01:34:35;15.38;;;7.15;;
76675;SDS011;69204;55.350;36.906;2023-05-16T01:39:40;13.93;;;7.30;;
76675;SDS011;69204;55.350;36.906;2023-05-16T01:50:21;14.50;;;6.47;;
76675;SDS011;69204;55.350;36.906;2023-05-16T02:00:35;15.37;;;6.77;;
76675;SDS011;69204;55.350;36.906;2023-05-16T02:05:36;13.27;;;6.85;;
76675;SDS011;69204;55.350;36.906;2023-05-16T02:10:36;11.63;;;6.17;;
76675;SDS011;69204;55.350;36.906;2023-05-16T02:15:39;14.70;;;6.65;;
76675;SDS011;69204;55.350;36.906;2023-05-16T02:20:40;16.60;;;6.22;;
76675;SDS011;69204;55.350;36.906;2023-05-16T02:25:40;10.55;;;5.43;;
76675;SDS011;69204;55.350;36.906;2023-05-16T02:30:41;10.07;;;5.77;;
76675;SDS011;69204;55.350;36.906;2023-05-16T02:35:42;10.15;;;5.72;;
76675;SDS011;69204;55.350;36.906;2023-05-16T02:40:43;10.00;;;5.90;;
76675;SDS011;69204;55.350;36.906;2023-05-16T02:45:44;19.17;;;6.03;;
76675;SDS011;69204;55.350;36.906;2023-05-16T02:50:45;11.13;;;6.90;;
76675;SDS011;69204;55.350;36.906;2023-05-16T02:55:46;13.15;;;8.18;;
76675;SDS011;69204;55.350;36.906;2023-05-16T03:00:47;11.03;;;7.90;;
76675;SDS011;69204;55.350;36.906;2023-05-16T03:05:48;11.90;;;7.32;;
76675;SDS011;69204;55.350;36.906;2023-05-16T03:10:49;12.00;;;5.87;;
76675;SDS011;69204;55.350;36.906;2023-05-16T03:15:50;10.20;;;5.72;;
76675;SDS011;69204;55.350;36.906;2023-05-16T03:20:51;12.77;;;5.90;;
76675;SDS011;69204;55.350;36.906;2023-05-16T03:25:53;12.98;;;6.45;;
76675;SDS011;69204;55.350;36.906;2023-05-16T03:30:53;15.95;;;6.90;;
76675;SDS011;69204;55.350;36.906;2023-05-16T03:35:54;37.13;;;14.53;;
76675;SDS011;69204;55.350;36.906;2023-05-16T03:40:55;12.17;;;6.50;;
76675;SDS011;69204;55.350;36.906;2023-05-16T03:45:56;9.07;;;5.83;;
76675;SDS011;69204;55.350;36.906;2023-05-16T03:50:57;8.47;;;5.60;;
76675;SDS011;69204;55.350;36.906;2023-05-16T03:55:58;9.80;;;6.17;;
76675;SDS011;69204;55.350;36.906;2023-05-16T04:00:59;8.90;;;5.78;;
76675;SDS011;69204;55.350;36.906;2023-05-16T04:06:00;11.27;;;5.63;;
76675;SDS011;69204;55.350;36.906;2023-05-16T04:11:01;9.70;;;6.70;;
76675;SDS011;69204;55.350;36.906;2023-05-16T04:16:02;14.03;;;8.50;;
76675;SDS011;69204;55.350;36.906;2023-05-16T04:21:03;8.65;;;5.88;;
76675;SDS011;69204;55.350;36.906;2023-05-16T04:26:04;11.43;;;5.68;;
76675;SDS011;69204;55.350;36.906;2023-05-16T04:31:05;16.93;;;6.47;;
76675;SDS011;69204;55.350;36.906;2023-05-16T04:36:07;20.00;;;8.85;;
76675;SDS011;69204;55.350;36.906;2023-05-16T04:41:08;17.27;;;8.57;;
76675;SDS011;69204;55.350;36.906;2023-05-16T04:46:09;18.98;;;6.97;;
76675;SDS011;69204;55.350;36.906;2023-05-16T04:51:09;19.07;;;7.90;;
76675;SDS011;69204;55.350;36.906;2023-05-16T04:56:11;17.08;;;7.80;;
76675;SDS011;69204;55.350;36.906;2023-05-16T05:01:12;14.27;;;6.23;;
76675;SDS011;69204;55.350;36.906;2023-05-16T05:06:12;15.40;;;9.20;;
76675;SDS011;69204;55.350;36.906;2023-05-16T05:11:13;11.30;;;5.53;;
76675;SDS011;69204;55.350;36.906;2023-05-16T05:16:14;12.23;;;4.72;;
76675;SDS011;69204;55.350;36.906;2023-05-16T05:21:15;8.63;;;4.27;;
76675;SDS011;69204;55.350;36.906;2023-05-16T05:26:16;10.63;;;4.97;;
76675;SDS011;69204;55.350;36.906;2023-05-16T05:31:17;12.80;;;5.20;;
76675;SDS011;69204;55.350;36.906;2023-05-16T05:36:18;7.25;;;3.30;;
76675;SDS011;69204;55.350;36.906;2023-05-16T05:41:19;5.20;;;2.77;;
76675;SDS011;69204;55.350;36.906;2023-05-16T05:46:21;5.15;;;2.42;;
76675;SDS011;69204;55.350;36.906;2023-05-16T05:51:22;5.57;;;2.53;;
76675;SDS011;69204;55.350;36.906;2023-05-16T05:56:23;4.45;;;2.63;;
76675;SDS011;69204;55.350;36.906;2023-05-16T06:01:24;5.25;;;2.60;;
76675;SDS011;69204;55.350;36.906;2023-05-16T06:06:25;4.50;;;2.43;;
76675;SDS011;69204;55.350;36.906;2023-05-16T06:11:26;5.28;;;2.40;;
76675;SDS011;69204;55.350;36.906;2023-05-16T06:16:27;10.47;;;4.47;;
76675;SDS011;69204;55.350;36.906;2023-05-16T06:21:28;4.13;;;2.53;;
76675;SDS011;69204;55.350;36.906;2023-05-16T06:26:29;5.50;;;1.90;;
76675;SDS011;69204;55.350;36.906;2023-05-16T06:31:30;3.83;;;2.10;;
76675;SDS011;69204;55.350;36.906;2023-05-16T06:36:31;4.97;;;1.97;;
76675;SDS011;69204;55.350;36.906;2023-05-16T06:41:32;7.78;;;1.80;;
76675;SDS011;69204;55.350;36.906;2023-05-16T06:46:33;7.13;;;2.20;;
76675;SDS011;69204;55.350;36.906;2023-05-16T06:51:34;4.07;;;1.98;;
76675;SDS011;69204;55.350;36.906;2023-05-16T06:56:34;5.30;;;1.73;;
76675;SDS011;69204;55.350;36.906;2023-05-16T07:01:35;4.95;;;1.92;;
76675;SDS011;69204;55.350;36.906;2023-05-16T07:06:36;4.93;;;1.63;;
76675;SDS011;69204;55.350;36.906;2023-05-16T07:11:37;3.80;;;1.70;;
76675;SDS011;69204;55.350;36.906;2023-05-16T07:16:38;5.30;;;1.70;;
76675;SDS011;69204;55.350;36.906;2023-05-16T07:21:39;9.25;;;2.22;;
76675;SDS011;69204;55.350;36.906;2023-05-16T07:26:40;4.83;;;1.77;;
76675;SDS011;69204;55.350;36.906;2023-05-16T07:31:40;4.73;;;2.17;;
76675;SDS011;69204;55.350;36.906;2023-05-16T07:36:41;6.07;;;1.80;;
76675;SDS011;69204;55.350;36.906;2023-05-16T07:41:42;6.27;;;1.80;;
76675;SDS011;69204;55.350;36.906;2023-05-16T07:46:43;6.07;;;1.70;;
76675;SDS011;69204;55.350;36.906;2023-05-16T07:51:44;9.80;;;1.80;;
76675;SDS011;69204;55.350;36.906;2023-05-16T07:56:44;4.03;;;1.60;;
76675;SDS011;69204;55.350;36.906;2023-05-16T08:01:45;4.87;;;1.53;;
76675;SDS011;69204;55.350;36.906;2023-05-16T08:06:47;4.38;;;1.42;;
76675;SDS011;69204;55.350;36.906;2023-05-16T08:11:47;7.60;;;2.03;;
76675;SDS011;69204;55.350;36.906;2023-05-16T08:16:48;4.68;;;1.95;;
76675;SDS011;69204;55.350;36.906;2023-05-16T08:21:49;12.73;;;1.80;;
76675;SDS011;69204;55.350;36.906;2023-05-16T08:26:50;6.18;;;1.60;;
76675;SDS011;69204;55.350;36.906;2023-05-16T08:31:51;4.90;;;1.50;;
76675;SDS011;69204;55.350;36.906;2023-05-16T08:36:52;4.20;;;1.80;;
76675;SDS011;69204;55.350;36.906;2023-05-16T08:41:54;8.73;;;2.07;;
76675;SDS011;69204;55.350;36.906;2023-05-16T08:46:54;4.22;;;1.38;;
76675;SDS011;69204;55.350;36.906;2023-05-16T08:51:56;3.60;;;1.73;;
76675;SDS011;69204;55.350;36.906;2023-05-16T08:57:00;2.90;;;1.40;;
76675;SDS011;69204;55.350;36.906;2023-05-16T09:02:02;5.00;;;1.60;;
76675;SDS011;69204;55.350;36.906;2023-05-16T09:07:04;4.90;;;1.40;;
76675;SDS011;69204;55.350;36.906;2023-05-16T09:12:17;4.43;;;1.85;;
76675;SDS011;69204;55.350;36.906;2023-05-16T09:17:19;4.80;;;1.80;;
76675;SDS011;69204;55.350;36.906;2023-05-16T09:22:20;4.73;;;1.77;;
76675;SDS011;69204;55.350;36.906;2023-05-16T09:27:23;3.58;;;1.33;;
76675;SDS011;69204;55.350;36.906;2023-05-16T09:32:24;4.40;;;1.53;;
76675;SDS011;69204;55.350;36.906;2023-05-16T09:37:25;2.92;;;1.50;;
76675;SDS011;69204;55.350;36.906;2023-05-16T09:42:26;5.47;;;1.40;;
76675;SDS011;69204;55.350;36.906;2023-05-16T09:47:27;3.90;;;1.45;;
76675;SDS011;69204;55.350;36.906;2023-05-16T09:52:28;2.90;;;1.20;;
76675;SDS011;69204;55.350;36.906;2023-05-16T09:57:29;2.67;;;1.30;;
76675;SDS011;69204;55.350;36.906;2023-05-16T10:02:30;4.55;;;1.40;;
76675;SDS011;69204;55.350;36.906;2023-05-16T10:07:31;3.83;;;1.30;;
76675;SDS011;69204;55.350;36.906;2023-05-16T10:12:33;3.95;;;1.30;;
76675;SDS011;69204;55.350;36.906;2023-05-16T10:17:37;6.50;;;1.37;;
76675;SDS011;69204;55.350;36.906;2023-05-16T10:22:42;4.50;;;1.88;;
76675;SDS011;69204;55.350;36.906;2023-05-16T10:27:43;5.70;;;1.38;;
76675;SDS011;69204;55.350;36.906;2023-05-16T10:32:44;3.63;;;1.50;;
76675;SDS011;69204;55.350;36.906;2023-05-16T10:37:47;3.95;;;1.75;;
76675;SDS011;69204;55.350;36.906;2023-05-16T10:42:56;3.67;;;0.90;;
76675;SDS011;69204;55.350;36.906;2023-05-16T10:48:02;3.50;;;1.20;;
76675;SDS011;69204;55.350;36.906;2023-05-16T10:58:45;3.60;;;1.27;;
76675;SDS011;69204;55.350;36.906;2023-05-16T11:14:19;3.08;;;1.17;;
76675;SDS011;69204;55.350;36.906;2023-05-16T11:19:38;3.95;;;1.20;;
76675;SDS011;69204;55.350;36.906;2023-05-16T11:29:58;4.90;;;1.60;;
76675;SDS011;69204;55.350;36.906;2023-05-16T11:35:06;5.73;;;1.43;;
76675;SDS011;69204;55.350;36.906;2023-05-16T11:40:10;2.50;;;1.02;;
76675;SDS011;69204;55.350;36.906;2023-05-16T11:45:14;3.47;;;1.40;;
76675;SDS011;69204;55.350;36.906;2023-05-16T11:50:22;3.03;;;1.50;;
76675;SDS011;69204;55.350;36.906;2023-05-16T11:55:24;4.80;;;1.40;;
76675;SDS011;69204;55.350;36.906;2023-05-16T12:00:27;5.87;;;1.47;;
76675;SDS011;69204;55.350;36.906;2023-05-16T12:05:28;5.40;;;1.10;;
76675;SDS011;69204;55.350;36.906;2023-05-16T12:10:30;5.00;;;1.50;;
76675;SDS011;69204;55.350;36.906;2023-05-16T12:15:33;6.27;;;1.90;;
76675;SDS011;69204;55.350;36.906;2023-05-16T12:20:34;2.85;;;1.00;;
76675;SDS011;69204;55.350;36.906;2023-05-16T12:25:35;3.17;;;1.33;;
76675;SDS011;69204;55.350;36.906;2023-05-16T12:30:41;3.10;;;1.27;;
76675;SDS011;69204;55.350;36.906;2023-05-16T12:35:44;4.88;;;1.15;;
76675;SDS011;69204;55.350;36.906;2023-05-16T12:40:46;4.77;;;1.33;;
76675;SDS011;69204;55.350;36.906;2023-05-16T12:45:51;3.33;;;1.52;;
76675;SDS011;69204;55.350;36.906;2023-05-16T12:50:55;3.57;;;1.10;;
76675;SDS011;69204;55.350;36.906;2023-05-16T12:55:56;4.22;;;0.95;;
76675;SDS011;69204;55.350;36.906;2023-05-16T13:00:57;2.93;;;1.30;;
76675;SDS011;69204;55.350;36.906;2023-05-16T13:05:58;3.40;;;1.50;;
76675;SDS011;69204;55.350;36.906;2023-05-16T13:10:59;5.35;;;1.50;;
76675;SDS011;69204;55.350;36.906;2023-05-16T13:16:00;8.03;;;1.43;;
76675;SDS011;69204;55.350;36.906;2023-05-16T13:21:01;6.80;;;1.92;;
76675;SDS011;69204;55.350;36.906;2023-05-16T13:26:05;6.93;;;1.57;;
76675;SDS011;69204;55.350;36.906;2023-05-16T13:31:06;3.47;;;1.40;;
76675;SDS011;69204;55.350;36.906;2023-05-16T13:36:07;4.13;;;1.50;;
76675;SDS011;69204;55.350;36.906;2023-05-16T13:41:08;6.90;;;1.85;;
76675;SDS011;69204;55.350;36.906;2023-05-16T13:46:09;3.87;;;1.40;;
76675;SDS011;69204;55.350;36.906;2023-05-16T13:51:10;8.77;;;2.10;;
76675;SDS011;69204;55.350;36.906;2023-05-16T13:56:12;5.30;;;1.87;;
76675;SDS011;69204;55.350;36.906;2023-05-16T14:01:13;8.50;;;2.47;;
76675;SDS011;69204;55.350;36.906;2023-05-16T14:06:14;4.47;;;2.40;;
76675;SDS011;69204;55.350;36.906;2023-05-16T14:11:15;8.07;;;1.55;;
76675;SDS011;69204;55.350;36.906;2023-05-16T14:16:19;4.40;;;2.00;;
76675;SDS011;69204;55.350;36.906;2023-05-16T14:21:19;5.13;;;1.60;;
76675;SDS011;69204;55.350;36.906;2023-05-16T14:26:20;4.38;;;1.80;;
76675;SDS011;69204;55.350;36.906;2023-05-16T14:31:24;3.80;;;1.30;;
76675;SDS011;69204;55.350;36.906;2023-05-16T14:36:25;4.90;;;1.58;;
76675;SDS011;69204;55.350;36.906;2023-05-16T14:41:26;4.50;;;1.77;;
76675;SDS011;69204;55.350;36.906;2023-05-16T14:46:27;3.30;;;1.40;;
76675;SDS011;69204;55.350;36.906;2023-05-16T14:51:28;3.77;;;1.70;;
76675;SDS011;69204;55.350;36.906;2023-05-16T14:56:28;3.58;;;1.20;;
76675;SDS011;69204;55.350;36.906;2023-05-16T15:01:29;10.48;;;2.00;;
76675;SDS011;69204;55.350;36.906;2023-05-16T15:06:30;8.17;;;1.83;;
76675;SDS011;69204;55.350;36.906;2023-05-16T15:11:31;5.78;;;1.60;;
76675;SDS011;69204;55.350;36.906;2023-05-16T15:16:32;4.80;;;1.80;;
76675;SDS011;69204;55.350;36.906;2023-05-16T15:21:33;8.10;;;6.20;;
76675;SDS011;69204;55.350;36.906;2023-05-16T15:26:34;7.57;;;2.67;;
76675;SDS011;69204;55.350;36.906;2023-05-16T15:31:35;9.25;;;2.40;;
76675;SDS011;69204;55.350;36.906;2023-05-16T15:36:35;9.27;;;3.13;;
76675;SDS011;69204;55.350;36.906;2023-05-16T15:41:36;18.80;;;6.07;;
76675;SDS011;69204;55.350;36.906;2023-05-16T15:46:37;8.48;;;3.08;;
76675;SDS011;69204;55.350;36.906;2023-05-16T15:51:38;4.90;;;1.93;;
76675;SDS011;69204;55.350;36.906;2023-05-16T15:56:39;9.48;;;2.60;;
76675;SDS011;69204;55.350;36.906;2023-05-16T16:01:40;6.00;;;2.42;;
76675;SDS011;69204;55.350;36.906;2023-05-16T16:06:41;16.57;;;4.90;;
76675;SDS011;69204;55.350;36.906;2023-05-16T16:11:42;6.80;;;3.28;;
76675;SDS011;69204;55.350;36.906;2023-05-16T16:16:42;8.27;;;3.57;;
76675;SDS011;69204;55.350;36.906;2023-05-16T16:21:43;9.40;;;4.00;;
76675;SDS011;69204;55.350;36.906;2023-05-16T16:26:44;11.17;;;2.67;;
76675;SDS011;69204;55.350;36.906;2023-05-16T16:31:45;8.73;;;3.00;;
76675;SDS011;69204;55.350;36.906;2023-05-16T16:36:46;13.00;;;5.97;;
76675;SDS011;69204;55.350;36.906;2023-05-16T16:41:47;7.45;;;3.85;;
76675;SDS011;69204;55.350;36.906;2023-05-16T16:46:48;9.53;;;3.93;;
76675;SDS011;69204;55.350;36.906;2023-05-16T16:51:48;10.70;;;5.07;;
76675;SDS011;69204;55.350;36.906;2023-05-16T16:56:50;9.77;;;3.47;;
76675;SDS011;69204;55.350;36.906;2023-05-16T17:01:51;8.52;;;3.67;;
76675;SDS011;69204;55.350;36.906;2023-05-16T17:06:52;10.43;;;3.60;;
76675;SDS011;69204;55.350;36.906;2023-05-16T17:11:53;11.13;;;4.60;;
76675;SDS011;69204;55.350;36.906;2023-05-16T17:16:54;15.37;;;5.37;;
76675;SDS011;69204;55.350;36.906;2023-05-16T17:21:55;16.10;;;4.85;;
76675;SDS011;69204;55.350;36.906;2023-05-16T17:26:56;13.77;;;4.90;;
76675;SDS011;69204;55.350;36.906;2023-05-16T17:31:57;15.60;;;5.13;;
76675;SDS011;69204;55.350;36.906;2023-05-16T17:36:58;19.65;;;7.35;;
76675;SDS011;69204;55.350;36.906;2023-05-16T17:41:58;21.20;;;7.57;;
76675;SDS011;69204;55.350;36.906;2023-05-16T17:46:59;12.45;;;4.82;;
76675;SDS011;69204;55.350;36.906;2023-05-16T17:52:00;11.40;;;5.50;;
76675;SDS011;69204;55.350;36.906;2023-05-16T17:57:02;19.48;;;6.25;;
76675;SDS011;69204;55.350;36.906;2023-05-16T18:02:03;19.10;;;8.27;;
76675;SDS011;69204;55.350;36.906;2023-05-16T18:07:05;50.45;;;20.02;;
76675;SDS011;69204;55.350;36.906;2023-05-16T18:12:06;24.58;;;11.15;;
76675;SDS011;69204;55.350;36.906;2023-05-16T18:17:08;38.57;;;17.50;;
76675;SDS011;69204;55.350;36.906;2023-05-16T18:22:09;45.30;;;16.73;;
76675;SDS011;69204;55.350;36.906;2023-05-16T18:27:11;30.67;;;13.40;;
76675;SDS011;69204;55.350;36.906;2023-05-16T18:32:12;39.60;;;16.48;;
76675;SDS011;69204;55.350;36.906;2023-05-16T18:37:13;65.77;;;26.30;;
76675;SDS011;69204;55.350;36.906;2023-05-16T18:42:15;89.05;;;35.40;;
76675;SDS011;69204;55.350;36.906;2023-05-16T18:47:16;76.73;;;30.43;;
76675;SDS011;69204;55.350;36.906;2023-05-16T18:52:18;64.30;;;23.90;;
76675;SDS011;69204;55.350;36.906;2023-05-16T18:57:20;39.20;;;17.15;;
76675;SDS011;69204;55.350;36.906;2023-05-16T19:02:21;47.77;;;20.97;;
76675;SDS011;69204;55.350;36.906;2023-05-16T19:07:21;34.00;;;15.63;;
76675;SDS011;69204;55.350;36.906;2023-05-16T19:12:22;30.77;;;14.00;;
76675;SDS011;69204;55.350;36.906;2023-05-16T19:17:26;32.83;;;13.35;;
76675;SDS011;69204;55.350;36.906;2023-05-16T19:22:27;28.13;;;13.10;;
76675;SDS011;69204;55.350;36.906;2023-05-16T19:27:28;32.10;;;15.32;;
76675;SDS011;69204;55.350;36.906;2023-05-16T19:32:29;39.85;;;20.98;;
76675;SDS011;69204;55.350;36.906;2023-05-16T19:37:30;49.00;;;22.50;;
76675;SDS011;69204;55.350;36.906;2023-05-16T19:42:31;46.38;;;21.63;;
76675;SDS011;69204;55.350;36.906;2023-05-16T19:47:32;51.03;;;22.70;;
76675;SDS011;69204;55.350;36.906;2023-05-16T19:52:35;33.83;;;17.88;;
76675;SDS011;69204;55.350;36.906;2023-05-16T19:57:36;49.50;;;25.27;;
76675;SDS011;69204;55.350;36.906;2023-05-16T20:02:37;46.13;;;24.20;;
76675;SDS011;69204;55.350;36.906;2023-05-16T20:07:37;44.93;;;24.47;;
76675;SDS011;69204;55.350;36.906;2023-05-16T20:12:39;48.55;;;26.48;;
76675;SDS011;69204;55.350;36.906;2023-05-16T20:17:40;42.97;;;23.53;;
76675;SDS011;69204;55.350;36.906;2023-05-16T20:22:41;42.85;;;22.05;;
76675;SDS011;69204;55.350;36.906;2023-05-16T20:27:42;46.53;;;21.90;;
76675;SDS011;69204;55.350;36.906;2023-05-16T20:32:43;29.33;;;16.30;;
76675;SDS011;69204;55.350;36.906;2023-05-16T20:37:44;29.30;;;16.98;;
76675;SDS011;69204;55.350;36.906;2023-05-16T20:42:45;33.00;;;17.90;;
76675;SDS011;69204;55.350;36.906;2023-05-16T20:47:46;29.80;;;14.75;;
76675;SDS011;69204;55.350;36.906;2023-05-16T20:52:47;27.83;;;13.87;;
76675;SDS011;69204;55.350;36.906;2023-05-16T20:57:48;29.20;;;14.05;;
76675;SDS011;69204;55.350;36.906;2023-05-16T21:02:49;27.92;;;13.43;;
76675;SDS011;69204;55.350;36.906;2023-05-16T21:07:50;24.27;;;11.85;;
76675;SDS011;69204;55.350;36.906;2023-05-16T21:12:51;21.25;;;10.48;;
76675;SDS011;69204;55.350;36.906;2023-05-16T21:17:52;19.50;;;8.73;;
76675;SDS011;69204;55.350;36.906;2023-05-16T21:22:53;15.85;;;8.35;;
76675;SDS011;69204;55.350;36.906;2023-05-16T21:27:53;18.98;;;10.07;;
76675;SDS011;69204;55.350;36.906;2023-05-16T21:32:55;27.15;;;11.25;;
76675;SDS011;69204;55.350;36.906;2023-05-16T21:37:56;26.35;;;11.25;;
76675;SDS011;69204;55.350;36.906;2023-05-16T21:42:57;30.10;;;10.67;;
76675;SDS011;69204;55.350;36.906;2023-05-16T21:47:57;27.08;;;10.45;;
76675;SDS011;69204;55.350;36.906;2023-05-16T21:52:58;22.53;;;10.07;;
76675;SDS011;69204;55.350;36.906;2023-05-16T21:57:59;27.80;;;10.63;;
76675;SDS011;69204;55.350;36.906;2023-05-16T22:03:00;20.57;;;9.10;;
76675;SDS011;69204;55.350;36.906;2023-05-16T22:08:01;27.92;;;9.88;;
76675;SDS011;69204;55.350;36.906;2023-05-16T22:13:02;19.93;;;7.37;;
76675;SDS011;69204;55.350;36.906;2023-05-16T22:18:03;16.40;;;7.07;;
76675;SDS011;69204;55.350;36.906;2023-05-16T22:23:04;10.80;;;5.13;;
76675;SDS011;69204;55.350;36.906;2023-05-16T22:28:04;19.42;;;7.72;;
76675;SDS011;69204;55.350;36.906;2023-05-16T22:33:05;14.87;;;6.47;;
76675;SDS011;69204;55.350;36.906;2023-05-16T22:38:06;12.07;;;5.57;;
76675;SDS011;69204;55.350;36.906;2023-05-16T22:43:07;13.57;;;5.93;;
76675;SDS011;69204;55.350;36.906;2023-05-16T22:48:08;12.85;;;5.85;;
76675;SDS011;69204;55.350;36.906;2023-05-16T22:53:09;10.67;;;5.20;;
76675;SDS011;69204;55.350;36.906;2023-05-16T22:58:09;10.57;;;5.18;;
76675;SDS011;69204;55.350;36.906;2023-05-16T23:03:10;13.57;;;4.93;;
76675;SDS011;69204;55.350;36.906;2023-05-16T23:08:11;12.27;;;5.00;;
76675;SDS011;69204;55.350;36.906;2023-05-16T23:13:12;13.73;;;5.18;;
76675;SDS011;69204;55.350;36.906;2023-05-16T23:18:13;12.33;;;5.07;;
76675;SDS011;69204;55.350;36.906;2023-05-16T23:23:13;16.17;;;7.65;;
76675;SDS011;69204;55.350;36.906;2023-05-16T23:28:14;14.83;;;5.80;;
76675;SDS011;69204;55.350;36.906;2023-05-16T23:33:15;13.50;;;6.35;;
76675;SDS011;69204;55.350;36.906;2023-05-16T23:38:16;13.65;;;6.85;;
76675;SDS011;69204;55.350;36.906;2023-05-16T23:43:17;13.65;;;6.15;;
76675;SDS011;69204;55.350;36.906;2023-05-16T23:48:18;10.90;;;4.40;;
76675;SDS011;69204;55.350;36.906;2023-05-16T23:53:19;8.25;;;3.60;;
76675;SDS011;69204;55.350;36.906;2023-05-16T23:58:20;9.15;;;3.55;;
